sensor_id;sensor_type;location;lat;lon;timestamp;temperature;humidity
75022;SHT31;63583;49.976;20.182;2022-12-15T00:01:19;-2.73;93.86
75022;SHT31;63583;49.976;20.182;2022-12-15T00:04:03;-2.75;93.99
75022;SHT31;63583;49.976;20.182;2022-12-15T00:06:48;-2.81;94.66
75022;SHT31;63583;49.976;20.182;2022-12-15T00:09:34;-2.70;94.40
75022;SHT31;63583;49.976;20.182;2022-12-15T00:12:18;-2.73;94.02
75022;SHT31;63583;49.976;20.182;2022-12-15T00:15:02;-2.70;94.35
75022;SHT31;63583;49.976;20.182;2022-12-15T00:17:46;-2.53;93.77
75022;SHT31;63583;49.976;20.182;2022-12-15T00:20:31;-2.58;93.56
75022;SHT31;63583;49.976;20.182;2022-12-15T00:23:15;-2.71;93.55
75022;SHT31;63583;49.976;20.182;2022-12-15T00:25:59;-2.80;94.10
75022;SHT31;63583;49.976;20.182;2022-12-15T00:28:44;-2.68;93.94
75022;SHT31;63583;49.976;20.182;2022-12-15T00:31:28;-2.64;93.85
75022;SHT31;63583;49.976;20.182;2022-12-15T00:34:12;-2.61;93.34
75022;SHT31;63583;49.976;20.182;2022-12-15T00:36:56;-2.58;93.50
75022;SHT31;63583;49.976;20.182;2022-12-15T00:39:40;-2.58;93.64
75022;SHT31;63583;49.976;20.182;2022-12-15T00:42:07;-2.53;93.42
75022;SHT31;63583;49.976;20.182;2022-12-15T00:44:33;-2.44;92.95
75022;SHT31;63583;49.976;20.182;2022-12-15T00:46:59;-2.67;93.31
75022;SHT31;63583;49.976;20.182;2022-12-15T00:49:27;-2.68;93.86
75022;SHT31;63583;49.976;20.182;2022-12-15T00:52:13;-2.74;93.99
75022;SHT31;63583;49.976;20.182;2022-12-15T00:54:58;-2.71;94.40
75022;SHT31;63583;49.976;20.182;2022-12-15T00:57:42;-2.74;94.27
75022;SHT31;63583;49.976;20.182;2022-12-15T01:00:27;-2.58;94.42
75022;SHT31;63583;49.976;20.182;2022-12-15T01:03:19;-2.49;93.78
75022;SHT31;63583;49.976;20.182;2022-12-15T01:06:09;-2.54;94.08
75022;SHT31;63583;49.976;20.182;2022-12-15T01:08:53;-2.54;93.84
75022;SHT31;63583;49.976;20.182;2022-12-15T01:11:38;-2.49;94.07
75022;SHT31;63583;49.976;20.182;2022-12-15T01:14:22;-2.46;94.25
75022;SHT31;63583;49.976;20.182;2022-12-15T01:17:07;-2.44;94.34
75022;SHT31;63583;49.976;20.182;2022-12-15T01:19:51;-2.49;94.32
75022;SHT31;63583;49.976;20.182;2022-12-15T01:22:36;-2.49;94.56
75022;SHT31;63583;49.976;20.182;2022-12-15T01:25:04;-2.46;94.41
75022;SHT31;63583;49.976;20.182;2022-12-15T01:27:30;-2.50;94.45
75022;SHT31;63583;49.976;20.182;2022-12-15T01:29:56;-2.50;94.58
75022;SHT31;63583;49.976;20.182;2022-12-15T01:32:22;-2.47;94.39
75022;SHT31;63583;49.976;20.182;2022-12-15T01:34:48;-2.50;94.52
75022;SHT31;63583;49.976;20.182;2022-12-15T01:37:14;-2.36;94.35
75022;SHT31;63583;49.976;20.182;2022-12-15T01:39:40;-2.32;93.90
75022;SHT31;63583;49.976;20.182;2022-12-15T01:42:24;-2.42;93.57
75022;SHT31;63583;49.976;20.182;2022-12-15T01:44:51;-2.46;94.11
75022;SHT31;63583;49.976;20.182;2022-12-15T01:47:22;-2.56;94.36
75022;SHT31;63583;49.976;20.182;2022-12-15T01:49:50;-2.58;94.49
75022;SHT31;63583;49.976;20.182;2022-12-15T01:52:17;-2.54;94.69
75022;SHT31;63583;49.976;20.182;2022-12-15T01:54:46;-2.49;94.65
75022;SHT31;63583;49.976;20.182;2022-12-15T01:57:19;-2.56;94.30
75022;SHT31;63583;49.976;20.182;2022-12-15T01:59:51;-2.54;94.66
75022;SHT31;63583;49.976;20.182;2022-12-15T02:02:19;-2.53;94.32
75022;SHT31;63583;49.976;20.182;2022-12-15T02:04:47;-2.47;94.60
75022;SHT31;63583;49.976;20.182;2022-12-15T02:07:17;-2.40;94.72
75022;SHT31;63583;49.976;20.182;2022-12-15T02:09:46;-2.39;94.50
75022;SHT31;63583;49.976;20.182;2022-12-15T02:12:24;-2.44;93.95
75022;SHT31;63583;49.976;20.182;2022-12-15T02:26:16;-2.32;94.27
75022;SHT31;63583;49.976;20.182;2022-12-15T02:29:17;-2.26;93.78
75022;SHT31;63583;49.976;20.182;2022-12-15T02:31:51;-2.40;94.23
75022;SHT31;63583;49.976;20.182;2022-12-15T02:39:46;-2.44;94.83
75022;SHT31;63583;49.976;20.182;2022-12-15T02:42:13;-2.42;94.70
75022;SHT31;63583;49.976;20.182;2022-12-15T02:44:49;-2.39;94.41
75022;SHT31;63583;49.976;20.182;2022-12-15T02:55:48;-2.12;93.23
75022;SHT31;63583;49.976;20.182;2022-12-15T03:00:49;-2.15;93.85
75022;SHT31;63583;49.976;20.182;2022-12-15T03:03:16;-2.02;93.37
75022;SHT31;63583;49.976;20.182;2022-12-15T03:05:49;-2.03;93.63
75022;SHT31;63583;49.976;20.182;2022-12-15T03:08:20;-1.84;93.22
75022;SHT31;63583;49.976;20.182;2022-12-15T03:10:47;-1.96;92.57
75022;SHT31;63583;49.976;20.182;2022-12-15T03:13:14;-1.71;91.82
75022;SHT31;63583;49.976;20.182;2022-12-15T03:15:40;-2.05;93.18
75022;SHT31;63583;49.976;20.182;2022-12-15T03:18:06;-2.15;94.19
75022;SHT31;63583;49.976;20.182;2022-12-15T03:20:31;-1.85;93.16
75022;SHT31;63583;49.976;20.182;2022-12-15T03:22:57;-2.09;93.35
75022;SHT31;63583;49.976;20.182;2022-12-15T03:25:23;-2.15;93.88
75022;SHT31;63583;49.976;20.182;2022-12-15T03:27:49;-2.22;94.62
75022;SHT31;63583;49.976;20.182;2022-12-15T03:30:14;-2.10;94.06
75022;SHT31;63583;49.976;20.182;2022-12-15T03:32:40;-2.22;94.03
75022;SHT31;63583;49.976;20.182;2022-12-15T03:35:06;-2.18;94.52
75022;SHT31;63583;49.976;20.182;2022-12-15T03:37:32;-2.09;94.39
75022;SHT31;63583;49.976;20.182;2022-12-15T03:39:58;-2.07;94.07
75022;SHT31;63583;49.976;20.182;2022-12-15T03:42:24;-2.07;94.00
75022;SHT31;63583;49.976;20.182;2022-12-15T03:45:08;-2.06;93.98
75022;SHT31;63583;49.976;20.182;2022-12-15T03:47:34;-2.07;93.67
75022;SHT31;63583;49.976;20.182;2022-12-15T03:49:59;-2.16;94.07
75022;SHT31;63583;49.976;20.182;2022-12-15T03:52:25;-2.10;94.32
75022;SHT31;63583;49.976;20.182;2022-12-15T03:54:51;-2.12;94.38
75022;SHT31;63583;49.976;20.182;2022-12-15T03:57:18;-2.16;94.50
75022;SHT31;63583;49.976;20.182;2022-12-15T03:59:43;-2.18;94.60
75022;SHT31;63583;49.976;20.182;2022-12-15T04:02:10;-2.02;94.27
75022;SHT31;63583;49.976;20.182;2022-12-15T04:04:36;-1.98;94.21
75022;SHT31;63583;49.976;20.182;2022-12-15T04:07:02;-1.75;93.85
75022;SHT31;63583;49.976;20.182;2022-12-15T04:09:28;-1.66;92.64
75022;SHT31;63583;49.976;20.182;2022-12-15T04:11:54;-1.84;93.51
75022;SHT31;63583;49.976;20.182;2022-12-15T04:14:19;-1.78;93.92
75022;SHT31;63583;49.976;20.182;2022-12-15T04:16:45;-1.74;93.70
75022;SHT31;63583;49.976;20.182;2022-12-15T04:19:11;-1.75;93.81
75022;SHT31;63583;49.976;20.182;2022-12-15T04:21:55;-1.61;93.55
75022;SHT31;63583;49.976;20.182;2022-12-15T04:24:22;-1.60;93.26
75022;SHT31;63583;49.976;20.182;2022-12-15T04:27:06;-1.60;92.90
75022;SHT31;63583;49.976;20.182;2022-12-15T04:29:50;-1.57;92.38
75022;SHT31;63583;49.976;20.182;2022-12-15T04:32:34;-1.56;92.96
75022;SHT31;63583;49.976;20.182;2022-12-15T04:35:19;-1.61;93.12
75022;SHT31;63583;49.976;20.182;2022-12-15T04:38:04;-1.71;93.50
75022;SHT31;63583;49.976;20.182;2022-12-15T04:40:48;-1.68;93.48
75022;SHT31;63583;49.976;20.182;2022-12-15T04:43:32;-1.58;92.92
75022;SHT31;63583;49.976;20.182;2022-12-15T04:46:17;-1.64;93.40
75022;SHT31;63583;49.976;20.182;2022-12-15T04:49:01;-1.61;93.43
75022;SHT31;63583;49.976;20.182;2022-12-15T04:51:45;-1.58;93.62
75022;SHT31;63583;49.976;20.182;2022-12-15T04:54:29;-1.56;93.56
75022;SHT31;63583;49.976;20.182;2022-12-15T04:57:13;-1.51;93.55
75022;SHT31;63583;49.976;20.182;2022-12-15T04:59:57;-1.53;93.48
75022;SHT31;63583;49.976;20.182;2022-12-15T05:02:41;-1.48;93.22
75022;SHT31;63583;49.976;20.182;2022-12-15T05:05:26;-1.43;92.88
75022;SHT31;63583;49.976;20.182;2022-12-15T05:08:10;-1.36;92.41
75022;SHT31;63583;49.976;20.182;2022-12-15T05:10:54;-1.48;93.39
75022;SHT31;63583;49.976;20.182;2022-12-15T05:13:38;-1.53;93.31
75022;SHT31;63583;49.976;20.182;2022-12-15T05:16:22;-1.48;93.08
75022;SHT31;63583;49.976;20.182;2022-12-15T05:19:06;-1.32;92.80
75022;SHT31;63583;49.976;20.182;2022-12-15T05:21:50;-1.43;92.82
75022;SHT31;63583;49.976;20.182;2022-12-15T05:24:34;-1.36;92.86
75022;SHT31;63583;49.976;20.182;2022-12-15T05:27:19;-1.37;92.79
75022;SHT31;63583;49.976;20.182;2022-12-15T05:30:04;-1.39;92.79
75022;SHT31;63583;49.976;20.182;2022-12-15T05:32:49;-1.47;92.90
75022;SHT31;63583;49.976;20.182;2022-12-15T05:35:14;-1.33;92.84
75022;SHT31;63583;49.976;20.182;2022-12-15T05:37:40;-1.40;92.97
75022;SHT31;63583;49.976;20.182;2022-12-15T05:40:06;-1.48;93.36
75022;SHT31;63583;49.976;20.182;2022-12-15T05:42:32;-1.46;93.26
75022;SHT31;63583;49.976;20.182;2022-12-15T05:44:58;-1.33;93.00
75022;SHT31;63583;49.976;20.182;2022-12-15T05:47:24;-1.32;92.97
75022;SHT31;63583;49.976;20.182;2022-12-15T05:49:50;-1.39;93.39
75022;SHT31;63583;49.976;20.182;2022-12-15T05:52:16;-1.42;93.25
75022;SHT31;63583;49.976;20.182;2022-12-15T05:54:42;-1.37;93.47
75022;SHT31;63583;49.976;20.182;2022-12-15T05:57:08;-1.36;93.62
75022;SHT31;63583;49.976;20.182;2022-12-15T05:59:33;-1.46;93.61
75022;SHT31;63583;49.976;20.182;2022-12-15T06:01:59;-1.42;93.51
75022;SHT31;63583;49.976;20.182;2022-12-15T06:04:25;-1.43;93.67
75022;SHT31;63583;49.976;20.182;2022-12-15T06:06:50;-1.46;94.26
75022;SHT31;63583;49.976;20.182;2022-12-15T06:09:16;-1.35;93.85
75022;SHT31;63583;49.976;20.182;2022-12-15T06:11:42;-1.46;94.05
75022;SHT31;63583;49.976;20.182;2022-12-15T06:14:08;-1.46;94.33
75022;SHT31;63583;49.976;20.182;2022-12-15T06:16:34;-1.39;94.24
75022;SHT31;63583;49.976;20.182;2022-12-15T06:19:01;-1.36;94.03
75022;SHT31;63583;49.976;20.182;2022-12-15T06:21:32;-1.37;94.35
75022;SHT31;63583;49.976;20.182;2022-12-15T06:24:00;-1.40;94.40
75022;SHT31;63583;49.976;20.182;2022-12-15T06:26:30;-1.35;94.35
75022;SHT31;63583;49.976;20.182;2022-12-15T06:28:59;-1.29;94.09
75022;SHT31;63583;49.976;20.182;2022-12-15T06:31:27;-1.29;94.18
75022;SHT31;63583;49.976;20.182;2022-12-15T06:33:54;-1.32;94.05
75022;SHT31;63583;49.976;20.182;2022-12-15T06:36:21;-1.39;94.47
75022;SHT31;63583;49.976;20.182;2022-12-15T06:38:50;-1.43;94.87
75022;SHT31;63583;49.976;20.182;2022-12-15T06:41:19;-1.32;94.78
75022;SHT31;63583;49.976;20.182;2022-12-15T06:43:49;-1.33;94.68
75022;SHT31;63583;49.976;20.182;2022-12-15T06:46:16;-1.35;94.53
75022;SHT31;63583;49.976;20.182;2022-12-15T06:48:42;-1.37;94.92
75022;SHT31;63583;49.976;20.182;2022-12-15T06:51:11;-1.32;94.58
75022;SHT31;63583;49.976;20.182;2022-12-15T06:53:38;-1.43;95.14
75022;SHT31;63583;49.976;20.182;2022-12-15T06:56:09;-1.46;95.25
75022;SHT31;63583;49.976;20.182;2022-12-15T06:58:38;-1.43;94.93
75022;SHT31;63583;49.976;20.182;2022-12-15T07:01:05;-1.35;94.68
75022;SHT31;63583;49.976;20.182;2022-12-15T07:03:33;-1.25;94.50
75022;SHT31;63583;49.976;20.182;2022-12-15T07:06:04;-1.36;94.89
75022;SHT31;63583;49.976;20.182;2022-12-15T07:08:31;-1.37;94.62
75022;SHT31;63583;49.976;20.182;2022-12-15T07:10:57;-1.25;94.34
75022;SHT31;63583;49.976;20.182;2022-12-15T07:13:23;-1.29;94.29
75022;SHT31;63583;49.976;20.182;2022-12-15T07:15:49;-1.27;94.47
75022;SHT31;63583;49.976;20.182;2022-12-15T07:18:15;-1.23;93.83
75022;SHT31;63583;49.976;20.182;2022-12-15T07:20:42;-1.21;93.78
75022;SHT31;63583;49.976;20.182;2022-12-15T07:23:08;-1.26;93.96
75022;SHT31;63583;49.976;20.182;2022-12-15T07:25:35;-1.32;93.71
75022;SHT31;63583;49.976;20.182;2022-12-15T07:28:01;-1.17;92.97
75022;SHT31;63583;49.976;20.182;2022-12-15T07:30:27;-1.17;92.56
75022;SHT31;63583;49.976;20.182;2022-12-15T07:32:53;-1.13;92.43
75022;SHT31;63583;49.976;20.182;2022-12-15T07:35:19;-1.02;92.12
75022;SHT31;63583;49.976;20.182;2022-12-15T07:37:45;-0.99;92.07
75022;SHT31;63583;49.976;20.182;2022-12-15T07:40:11;-0.92;91.91
75022;SHT31;63583;49.976;20.182;2022-12-15T07:42:36;-1.00;92.03
75022;SHT31;63583;49.976;20.182;2022-12-15T07:45:03;-0.91;91.20
75022;SHT31;63583;49.976;20.182;2022-12-15T07:47:30;-0.88;91.55
75022;SHT31;63583;49.976;20.182;2022-12-15T07:49:58;-0.79;90.80
75022;SHT31;63583;49.976;20.182;2022-12-15T07:52:24;-0.74;90.95
75022;SHT31;63583;49.976;20.182;2022-12-15T07:54:50;-0.60;90.28
75022;SHT31;63583;49.976;20.182;2022-12-15T07:57:16;-0.78;90.32
75022;SHT31;63583;49.976;20.182;2022-12-15T07:59:43;-0.72;90.66
75022;SHT31;63583;49.976;20.182;2022-12-15T08:02:10;-0.62;90.59
75022;SHT31;63583;49.976;20.182;2022-12-15T08:04:37;-0.49;89.78
75022;SHT31;63583;49.976;20.182;2022-12-15T08:07:02;-0.49;89.30
75022;SHT31;63583;49.976;20.182;2022-12-15T08:09:28;-0.50;89.61
75022;SHT31;63583;49.976;20.182;2022-12-15T08:11:57;-0.45;89.41
75022;SHT31;63583;49.976;20.182;2022-12-15T08:14:23;-0.45;89.65
75022;SHT31;63583;49.976;20.182;2022-12-15T08:16:49;-0.43;89.97
75022;SHT31;63583;49.976;20.182;2022-12-15T08:19:16;-0.47;89.77
75022;SHT31;63583;49.976;20.182;2022-12-15T08:21:43;-0.51;89.37
75022;SHT31;63583;49.976;20.182;2022-12-15T08:24:11;-0.65;88.60
75022;SHT31;63583;49.976;20.182;2022-12-15T08:26:37;-0.67;88.91
75022;SHT31;63583;49.976;20.182;2022-12-15T08:29:05;-0.67;89.09
75022;SHT31;63583;49.976;20.182;2022-12-15T08:31:31;-0.68;89.53
75022;SHT31;63583;49.976;20.182;2022-12-15T08:33:59;-0.58;88.54
75022;SHT31;63583;49.976;20.182;2022-12-15T08:36:25;-0.57;88.25
75022;SHT31;63583;49.976;20.182;2022-12-15T08:38:51;-0.75;88.89
75022;SHT31;63583;49.976;20.182;2022-12-15T08:41:20;-0.78;88.77
75022;SHT31;63583;49.976;20.182;2022-12-15T08:43:48;-0.81;88.80
75022;SHT31;63583;49.976;20.182;2022-12-15T08:46:20;-0.74;88.91
75022;SHT31;63583;49.976;20.182;2022-12-15T08:48:46;-0.79;88.65
75022;SHT31;63583;49.976;20.182;2022-12-15T08:51:13;-0.87;88.65
75022;SHT31;63583;49.976;20.182;2022-12-15T08:53:39;-1.08;89.26
75022;SHT31;63583;49.976;20.182;2022-12-15T08:56:09;-0.87;88.83
75022;SHT31;63583;49.976;20.182;2022-12-15T08:58:36;-0.78;88.76
75022;SHT31;63583;49.976;20.182;2022-12-15T09:01:04;-0.72;88.69
75022;SHT31;63583;49.976;20.182;2022-12-15T09:03:32;-0.71;88.97
75022;SHT31;63583;49.976;20.182;2022-12-15T09:06:02;-0.68;88.50
75022;SHT31;63583;49.976;20.182;2022-12-15T09:08:28;-0.70;88.50
75022;SHT31;63583;49.976;20.182;2022-12-15T09:10:57;-0.58;88.39
75022;SHT31;63583;49.976;20.182;2022-12-15T09:13:23;-0.51;88.28
75022;SHT31;63583;49.976;20.182;2022-12-15T09:16:00;-0.62;88.49
75022;SHT31;63583;49.976;20.182;2022-12-15T09:18:26;-0.65;88.65
75022;SHT31;63583;49.976;20.182;2022-12-15T09:20:54;-0.60;88.53
75022;SHT31;63583;49.976;20.182;2022-12-15T09:23:20;-0.67;88.67
75022;SHT31;63583;49.976;20.182;2022-12-15T09:25:46;-0.67;88.87
75022;SHT31;63583;49.976;20.182;2022-12-15T09:28:13;-0.47;88.80
75022;SHT31;63583;49.976;20.182;2022-12-15T09:30:39;-0.51;88.80
75022;SHT31;63583;49.976;20.182;2022-12-15T09:33:05;-0.54;88.74
75022;SHT31;63583;49.976;20.182;2022-12-15T09:35:31;-0.34;88.43
75022;SHT31;63583;49.976;20.182;2022-12-15T09:37:57;-0.43;88.94
75022;SHT31;63583;49.976;20.182;2022-12-15T09:40:23;-0.34;89.34
75022;SHT31;63583;49.976;20.182;2022-12-15T09:42:54;-0.43;88.41
75022;SHT31;63583;49.976;20.182;2022-12-15T09:45:36;-0.37;88.26
75022;SHT31;63583;49.976;20.182;2022-12-15T09:48:11;-0.29;88.76
75022;SHT31;63583;49.976;20.182;2022-12-15T09:50:39;-0.24;87.80
75022;SHT31;63583;49.976;20.182;2022-12-15T09:53:12;-0.29;88.69
75022;SHT31;63583;49.976;20.182;2022-12-15T09:55:38;-0.20;88.43
75022;SHT31;63583;49.976;20.182;2022-12-15T10:06:08;0.05;86.52
75022;SHT31;63583;49.976;20.182;2022-12-15T10:08:41;-0.09;86.96
75022;SHT31;63583;49.976;20.182;2022-12-15T10:19:18;0.28;85.63
75022;SHT31;63583;49.976;20.182;2022-12-15T10:21:47;0.09;85.56
75022;SHT31;63583;49.976;20.182;2022-12-15T10:24:31;0.25;85.75
75022;SHT31;63583;49.976;20.182;2022-12-15T10:27:19;0.01;85.98
75022;SHT31;63583;49.976;20.182;2022-12-15T10:34:55;-0.03;85.87
75022;SHT31;63583;49.976;20.182;2022-12-15T10:37:21;0.05;85.96
75022;SHT31;63583;49.976;20.182;2022-12-15T10:39:50;-0.01;85.55
75022;SHT31;63583;49.976;20.182;2022-12-15T10:44:57;0.09;85.40
75022;SHT31;63583;49.976;20.182;2022-12-15T10:49:50;0.14;85.27
75022;SHT31;63583;49.976;20.182;2022-12-15T10:52:23;0.09;84.79
75022;SHT31;63583;49.976;20.182;2022-12-15T10:54:51;-0.13;85.82
75022;SHT31;63583;49.976;20.182;2022-12-15T10:57:23;-0.24;86.13
75022;SHT31;63583;49.976;20.182;2022-12-15T10:59:54;-0.31;85.98
75022;SHT31;63583;49.976;20.182;2022-12-15T11:05:01;-0.24;86.87
75022;SHT31;63583;49.976;20.182;2022-12-15T11:07:33;-0.30;87.40
75022;SHT31;63583;49.976;20.182;2022-12-15T11:10:00;-0.24;87.00
75022;SHT31;63583;49.976;20.182;2022-12-15T11:12:29;-0.36;87.66
75022;SHT31;63583;49.976;20.182;2022-12-15T11:20:33;-0.43;88.01
75022;SHT31;63583;49.976;20.182;2022-12-15T11:23:32;-0.40;87.16
75022;SHT31;63583;49.976;20.182;2022-12-15T11:26:04;-0.44;87.70
75022;SHT31;63583;49.976;20.182;2022-12-15T11:28:38;-0.29;87.20
75022;SHT31;63583;49.976;20.182;2022-12-15T11:33:36;-0.29;86.75
75022;SHT31;63583;49.976;20.182;2022-12-15T11:36:11;-0.40;87.46
75022;SHT31;63583;49.976;20.182;2022-12-15T11:39:03;-0.41;87.35
75022;SHT31;63583;49.976;20.182;2022-12-15T11:46:38;-0.47;86.75
75022;SHT31;63583;49.976;20.182;2022-12-15T11:49:27;-0.57;87.20
75022;SHT31;63583;49.976;20.182;2022-12-15T11:52:40;-0.49;87.22
75022;SHT31;63583;49.976;20.182;2022-12-15T12:00:32;-0.51;86.87
75022;SHT31;63583;49.976;20.182;2022-12-15T12:11:17;-0.41;86.70
75022;SHT31;63583;49.976;20.182;2022-12-15T12:14:38;-0.53;86.91
75022;SHT31;63583;49.976;20.182;2022-12-15T12:16:59;-0.49;86.78
75022;SHT31;63583;49.976;20.182;2022-12-15T12:19:31;-0.51;87.13
75022;SHT31;63583;49.976;20.182;2022-12-15T12:22:04;-0.50;86.99
75022;SHT31;63583;49.976;20.182;2022-12-15T12:24:54;-0.61;87.48
75022;SHT31;63583;49.976;20.182;2022-12-15T12:27:42;-0.50;87.51
75022;SHT31;63583;49.976;20.182;2022-12-15T12:30:16;-0.37;86.82
75022;SHT31;63583;49.976;20.182;2022-12-15T12:35:48;-0.23;86.21
75022;SHT31;63583;49.976;20.182;2022-12-15T12:38:19;-0.27;86.09
75022;SHT31;63583;49.976;20.182;2022-12-15T12:43:40;-0.57;87.25
75022;SHT31;63583;49.976;20.182;2022-12-15T12:46:09;-0.58;87.66
75022;SHT31;63583;49.976;20.182;2022-12-15T12:48:42;-0.58;88.17
75022;SHT31;63583;49.976;20.182;2022-12-15T12:51:22;-0.45;88.03
75022;SHT31;63583;49.976;20.182;2022-12-15T12:53:49;-0.41;87.11
75022;SHT31;63583;49.976;20.182;2022-12-15T12:56:32;-0.45;87.36
75022;SHT31;63583;49.976;20.182;2022-12-15T12:58:59;-0.62;87.86
75022;SHT31;63583;49.976;20.182;2022-12-15T13:01:33;-0.53;87.51
75022;SHT31;63583;49.976;20.182;2022-12-15T13:04:10;-0.49;87.44
75022;SHT31;63583;49.976;20.182;2022-12-15T13:16:45;-0.58;87.22
75022;SHT31;63583;49.976;20.182;2022-12-15T13:19:12;-0.51;87.55
75022;SHT31;63583;49.976;20.182;2022-12-15T13:26:52;-0.60;88.04
75022;SHT31;63583;49.976;20.182;2022-12-15T13:29:27;-0.77;88.27
75022;SHT31;63583;49.976;20.182;2022-12-15T13:31:53;-1.06;89.58
75022;SHT31;63583;49.976;20.182;2022-12-15T13:34:21;-1.02;90.09
75022;SHT31;63583;49.976;20.182;2022-12-15T13:36:51;-0.93;89.25
75022;SHT31;63583;49.976;20.182;2022-12-15T13:44:43;-0.81;90.14
75022;SHT31;63583;49.976;20.182;2022-12-15T13:52:49;-0.95;89.61
75022;SHT31;63583;49.976;20.182;2022-12-15T13:55:24;-1.19;90.29
75022;SHT31;63583;49.976;20.182;2022-12-15T13:57:56;-1.21;90.54
75022;SHT31;63583;49.976;20.182;2022-12-15T14:00:24;-1.09;90.96
75022;SHT31;63583;49.976;20.182;2022-12-15T14:03:05;-1.21;90.41
75022;SHT31;63583;49.976;20.182;2022-12-15T14:05:32;-1.02;90.39
75022;SHT31;63583;49.976;20.182;2022-12-15T14:08:00;-1.06;89.99
75022;SHT31;63583;49.976;20.182;2022-12-15T14:13:28;-1.32;91.63
75022;SHT31;63583;49.976;20.182;2022-12-15T14:15:55;-1.25;90.98
75022;SHT31;63583;49.976;20.182;2022-12-15T14:20:52;-1.08;89.38
75022;SHT31;63583;49.976;20.182;2022-12-15T14:23:25;-1.16;89.86
75022;SHT31;63583;49.976;20.182;2022-12-15T14:25:54;-1.20;89.86
75022;SHT31;63583;49.976;20.182;2022-12-15T14:28:26;-1.15;89.72
75022;SHT31;63583;49.976;20.182;2022-12-15T14:30:52;-1.17;89.75
75022;SHT31;63583;49.976;20.182;2022-12-15T14:33:18;-1.30;90.08
75022;SHT31;63583;49.976;20.182;2022-12-15T14:35:47;-0.98;88.81
75022;SHT31;63583;49.976;20.182;2022-12-15T14:38:40;-1.13;89.21
75022;SHT31;63583;49.976;20.182;2022-12-15T14:41:03;-1.21;89.86
75022;SHT31;63583;49.976;20.182;2022-12-15T14:43:35;-1.17;89.73
75022;SHT31;63583;49.976;20.182;2022-12-15T14:46:05;-1.13;89.70
75022;SHT31;63583;49.976;20.182;2022-12-15T14:48:35;-1.30;90.51
75022;SHT31;63583;49.976;20.182;2022-12-15T14:51:02;-1.40;90.95
75022;SHT31;63583;49.976;20.182;2022-12-15T14:53:34;-1.43;91.16
75022;SHT31;63583;49.976;20.182;2022-12-15T14:58:42;-1.44;91.57
75022;SHT31;63583;49.976;20.182;2022-12-15T15:01:26;-1.50;92.02
75022;SHT31;63583;49.976;20.182;2022-12-15T15:04:05;-1.48;93.18
75022;SHT31;63583;49.976;20.182;2022-12-15T15:06:38;-1.54;92.86
75022;SHT31;63583;49.976;20.182;2022-12-15T15:09:18;-1.57;92.94
75022;SHT31;63583;49.976;20.182;2022-12-15T15:11:45;-1.57;92.94
75022;SHT31;63583;49.976;20.182;2022-12-15T15:14:16;-1.57;93.33
75022;SHT31;63583;49.976;20.182;2022-12-15T15:16:44;-1.61;93.52
75022;SHT31;63583;49.976;20.182;2022-12-15T15:19:21;-1.67;93.67
75022;SHT31;63583;49.976;20.182;2022-12-15T15:21:47;-1.60;93.10
75022;SHT31;63583;49.976;20.182;2022-12-15T15:26:39;-1.71;93.46
75022;SHT31;63583;49.976;20.182;2022-12-15T15:32:14;-1.74;93.68
75022;SHT31;63583;49.976;20.182;2022-12-15T15:34:40;-1.81;93.94
75022;SHT31;63583;49.976;20.182;2022-12-15T15:39:46;-1.81;94.02
75022;SHT31;63583;49.976;20.182;2022-12-15T15:42:12;-1.86;94.16
75022;SHT31;63583;49.976;20.182;2022-12-15T15:44:38;-1.85;94.25
75022;SHT31;63583;49.976;20.182;2022-12-15T15:47:05;-1.78;94.58
75022;SHT31;63583;49.976;20.182;2022-12-15T15:49:32;-1.81;94.48
75022;SHT31;63583;49.976;20.182;2022-12-15T15:51:58;-1.78;94.33
75022;SHT31;63583;49.976;20.182;2022-12-15T15:54:27;-1.82;94.76
75022;SHT31;63583;49.976;20.182;2022-12-15T15:56:55;-1.78;94.49
75022;SHT31;63583;49.976;20.182;2022-12-15T15:59:20;-1.79;93.96
75022;SHT31;63583;49.976;20.182;2022-12-15T16:01:51;-1.78;94.22
75022;SHT31;63583;49.976;20.182;2022-12-15T16:04:18;-1.71;94.09
75022;SHT31;63583;49.976;20.182;2022-12-15T16:06:44;-1.77;94.13
75022;SHT31;63583;49.976;20.182;2022-12-15T16:09:13;-1.75;94.38
75022;SHT31;63583;49.976;20.182;2022-12-15T16:11:39;-1.74;94.95
75022;SHT31;63583;49.976;20.182;2022-12-15T16:14:12;-1.75;94.53
75022;SHT31;63583;49.976;20.182;2022-12-15T16:16:39;-1.82;94.15
75022;SHT31;63583;49.976;20.182;2022-12-15T16:19:06;-1.78;94.36
75022;SHT31;63583;49.976;20.182;2022-12-15T16:21:32;-1.71;93.42
75022;SHT31;63583;49.976;20.182;2022-12-15T16:24:12;-1.64;92.82
75022;SHT31;63583;49.976;20.182;2022-12-15T16:26:44;-1.75;93.27
75022;SHT31;63583;49.976;20.182;2022-12-15T16:29:16;-1.60;92.39
75022;SHT31;63583;49.976;20.182;2022-12-15T16:31:43;-1.78;93.45
75022;SHT31;63583;49.976;20.182;2022-12-15T16:34:14;-1.92;93.47
75022;SHT31;63583;49.976;20.182;2022-12-15T16:36:41;-1.79;93.08
75022;SHT31;63583;49.976;20.182;2022-12-15T16:39:27;-1.85;93.44
75022;SHT31;63583;49.976;20.182;2022-12-15T16:41:55;-1.88;93.81
75022;SHT31;63583;49.976;20.182;2022-12-15T16:44:22;-1.94;93.97
75022;SHT31;63583;49.976;20.182;2022-12-15T16:46:48;-1.84;93.68
75022;SHT31;63583;49.976;20.182;2022-12-15T16:49:14;-1.96;94.30
75022;SHT31;63583;49.976;20.182;2022-12-15T16:51:45;-1.92;94.34
75022;SHT31;63583;49.976;20.182;2022-12-15T16:54:30;-1.99;94.69
75022;SHT31;63583;49.976;20.182;2022-12-15T16:56:57;-1.92;94.64
75022;SHT31;63583;49.976;20.182;2022-12-15T16:59:25;-1.96;94.51
75022;SHT31;63583;49.976;20.182;2022-12-15T17:01:55;-1.89;94.53
75022;SHT31;63583;49.976;20.182;2022-12-15T17:04:22;-1.94;94.42
75022;SHT31;63583;49.976;20.182;2022-12-15T17:06:50;-1.89;94.58
75022;SHT31;63583;49.976;20.182;2022-12-15T17:09:21;-2.01;95.07
75022;SHT31;63583;49.976;20.182;2022-12-15T17:11:49;-2.02;95.18
75022;SHT31;63583;49.976;20.182;2022-12-15T17:14:14;-1.96;94.82
75022;SHT31;63583;49.976;20.182;2022-12-15T17:16:40;-1.95;95.00
75022;SHT31;63583;49.976;20.182;2022-12-15T17:19:06;-1.96;95.12
75022;SHT31;63583;49.976;20.182;2022-12-15T17:21:34;-2.06;95.19
75022;SHT31;63583;49.976;20.182;2022-12-15T17:24:06;-2.03;95.24
75022;SHT31;63583;49.976;20.182;2022-12-15T17:26:35;-1.99;95.18
75022;SHT31;63583;49.976;20.182;2022-12-15T17:29:06;-1.88;94.65
75022;SHT31;63583;49.976;20.182;2022-12-15T17:31:32;-1.92;94.99
75022;SHT31;63583;49.976;20.182;2022-12-15T17:33:58;-1.89;94.63
75022;SHT31;63583;49.976;20.182;2022-12-15T17:36:26;-1.86;94.90
75022;SHT31;63583;49.976;20.182;2022-12-15T17:38:57;-1.96;95.28
75022;SHT31;63583;49.976;20.182;2022-12-15T17:41:25;-2.01;95.30
75022;SHT31;63583;49.976;20.182;2022-12-15T17:43:52;-1.98;95.53
75022;SHT31;63583;49.976;20.182;2022-12-15T17:46:18;-1.98;95.40
75022;SHT31;63583;49.976;20.182;2022-12-15T17:48:43;-2.09;95.82
75022;SHT31;63583;49.976;20.182;2022-12-15T17:51:15;-1.99;95.13
75022;SHT31;63583;49.976;20.182;2022-12-15T17:53:42;-2.10;95.62
75022;SHT31;63583;49.976;20.182;2022-12-15T17:56:13;-2.13;95.93